createdAt,value
2019-04-23T00:00:37.563Z,99.90
2019-04-23T00:06:15.173Z,99.90
2019-04-23T00:11:39.406Z,99.90
2019-04-23T00:17:17.963Z,99.90
2019-04-23T00:22:34.774Z,99.90
2019-04-23T00:28:21.604Z,99.90
2019-04-23T00:45:39.813Z,99.90
2019-04-23T00:50:58.563Z,99.90
2019-04-23T01:08:38.837Z,99.90
2019-04-23T01:14:16.299Z,99.90
2019-04-23T01:25:51.343Z,99.90
2019-04-23T01:42:29.337Z,99.90
2019-04-23T01:47:50.086Z,99.90
2019-04-23T01:53:16.482Z,99.90
2019-04-23T01:59:24.709Z,99.90
2019-04-23T02:05:58.875Z,99.90
2019-04-23T02:12:11.636Z,99.90
2019-04-23T02:17:25.479Z,99.90
2019-04-23T02:30:35.213Z,99.90
2019-04-23T02:40:30.556Z,99.90
2019-04-23T02:45:59.036Z,99.90
2019-04-23T03:02:17.594Z,99.90
2019-04-23T03:12:18.537Z,99.90
2019-04-23T03:17:59.137Z,99.90
2019-04-23T03:39:56.667Z,99.90
2019-04-23T03:46:24.299Z,99.90
2019-04-23T03:58:06.376Z,99.90
2019-04-23T04:03:10.128Z,99.90
2019-04-23T04:14:38.544Z,99.90
2019-04-23T04:19:09.265Z,99.90
2019-04-23T04:41:15.896Z,99.90
2019-04-23T04:57:35.361Z,99.90
2019-04-23T05:03:01.127Z,99.90
2019-04-23T05:10:09.313Z,99.90
2019-04-23T05:19:13.767Z,99.90
2019-04-23T05:24:14.858Z,99.90
2019-04-23T05:29:34.145Z,99.90
2019-04-23T05:34:57.625Z,99.90
2019-04-23T06:31:40.812Z,99.90
2019-04-23T06:36:37.130Z,99.90
2019-04-23T06:46:39.533Z,99.90
2019-04-23T06:56:26.845Z,99.90
2019-04-23T07:01:17.693Z,99.90
2019-04-23T07:11:34.149Z,99.90
2019-04-23T07:16:09.492Z,99.90
2019-04-23T07:26:25.742Z,99.90
2019-04-23T07:31:14.118Z,99.90
2019-04-23T07:36:19.357Z,99.90
2019-04-23T07:41:24.981Z,99.90
2019-04-23T07:46:33.690Z,99.90
2019-04-23T07:51:19.592Z,99.90
2019-04-23T07:56:21.378Z,99.90
2019-04-23T08:01:14.128Z,99.90
2019-04-23T08:06:13.176Z,99.90
2019-04-23T08:16:23.338Z,99.90
2019-04-23T08:21:10.344Z,99.90
2019-04-23T08:26:35.822Z,99.90
2019-04-23T08:31:32.271Z,99.90
2019-04-23T08:36:29.547Z,99.90
2019-04-23T08:46:46.678Z,99.90
2019-04-23T08:51:54.760Z,99.90
2019-04-23T08:56:31.812Z,99.90
2019-04-23T09:01:41.024Z,99.90
2019-04-23T09:06:22.208Z,99.90
2019-04-23T09:11:35.864Z,99.90
2019-04-23T09:16:28.687Z,99.90
2019-04-23T09:26:08.900Z,99.90
2019-04-23T09:36:51.618Z,99.90
2019-04-23T09:42:02.297Z,99.90
2019-04-23T09:47:24.563Z,99.90
2019-04-23T09:52:07.350Z,99.90
2019-04-23T09:56:57.373Z,99.90
2019-04-23T10:01:49.945Z,99.90
2019-04-23T10:06:36.492Z,99.90
2019-04-23T10:11:28.524Z,99.90
2019-04-23T10:16:27.659Z,99.90
2019-04-23T10:21:21.757Z,99.90
2019-04-23T10:26:17.471Z,99.90
2019-04-23T10:31:14.532Z,99.90
2019-04-23T10:36:13.697Z,99.90
2019-04-23T10:41:09.789Z,99.90
2019-04-23T10:46:43.006Z,99.90
2019-04-23T10:51:59.774Z,99.90
2019-04-23T10:56:56.992Z,99.90
2019-04-23T11:01:53.043Z,99.90
2019-04-23T11:06:50.430Z,99.90
2019-04-23T11:11:53.868Z,99.90
2019-04-23T11:16:58.160Z,99.90
2019-04-23T11:21:58.235Z,99.90
2019-04-23T11:26:49.533Z,99.90
2019-04-23T11:31:59.019Z,99.90
2019-04-23T11:41:53.024Z,99.90
2019-04-23T11:57:07.975Z,99.90
2019-04-23T12:07:06.235Z,99.90
2019-04-23T12:17:13.359Z,99.90
2019-04-23T12:22:02.761Z,99.90
2019-04-23T12:32:30.904Z,99.20
2019-04-23T12:37:17.641Z,99.90
2019-04-23T12:42:27.847Z,99.60
2019-04-23T12:47:14.470Z,99.90
2019-04-23T12:52:12.886Z,99.90
2019-04-23T13:02:11.403Z,98.80
2019-04-23T13:06:58.335Z,99.90
2019-04-23T13:12:04.945Z,98.40
2019-04-23T13:17:05.528Z,99.40
2019-04-23T13:26:47.232Z,99.30
2019-04-23T13:31:39.917Z,99.80
2019-04-23T13:36:46.789Z,98.60
2019-04-23T13:41:42.095Z,98.30
2019-04-23T13:46:35.670Z,99.00
2019-04-23T13:52:02.416Z,98.00
2019-04-23T13:57:03.233Z,98.10
2019-04-23T14:01:33.548Z,97.30
2019-04-23T14:06:36.774Z,98.50
2019-04-23T14:11:30.856Z,97.30
2019-04-23T14:16:34.149Z,94.40
2019-04-23T14:26:33.997Z,97.10
2019-04-23T14:31:17.463Z,95.30
2019-04-23T14:36:36.396Z,96.50
2019-04-23T14:51:22.995Z,93.90
2019-04-23T15:06:20.147Z,96.40
2019-04-23T15:11:23.888Z,94.90
2019-04-23T15:16:20.871Z,94.60
2019-04-23T15:21:28.355Z,94.60
2019-04-23T15:27:02.535Z,94.90
2019-04-23T15:31:17.950Z,96.10
2019-04-23T15:36:16.096Z,96.80
2019-04-23T15:41:01.817Z,96.80
2019-04-23T15:46:02.923Z,96.60
2019-04-23T15:50:52.437Z,96.80
2019-04-23T15:55:56.155Z,95.50
2019-04-23T16:05:52.985Z,97.80
2019-04-23T16:11:36.459Z,97.50
2019-04-23T16:16:26.156Z,98.30
2019-04-23T16:21:20.669Z,99.10
2019-04-23T16:26:20.538Z,99.50
2019-04-23T16:31:26.422Z,99.90
2019-04-23T16:41:12.905Z,99.90
2019-04-23T16:46:07.128Z,99.60
2019-04-23T16:51:16.714Z,99.90
2019-04-23T16:56:13.501Z,99.40
2019-04-23T17:01:03.368Z,98.40
2019-04-23T17:11:02.756Z,99.60
2019-04-23T17:16:02.657Z,99.80
2019-04-23T17:20:53.050Z,99.90
2019-04-23T17:25:48.783Z,99.90
2019-04-23T17:31:03.981Z,99.90
2019-04-23T17:36:22.398Z,99.90
2019-04-23T17:41:15.700Z,99.90
2019-04-23T17:46:05.289Z,99.90
2019-04-23T17:51:11.035Z,99.90
2019-04-23T17:56:29.003Z,99.90
2019-04-23T18:06:21.640Z,99.90
2019-04-23T18:11:13.056Z,99.90
2019-04-23T18:16:09.611Z,99.90
2019-04-23T18:26:23.187Z,99.90
2019-04-23T18:31:23.434Z,99.90
2019-04-23T18:36:21.734Z,99.90
2019-04-23T18:41:10.564Z,99.90
2019-04-23T18:46:22.931Z,99.90
2019-04-23T18:51:34.146Z,99.90
2019-04-23T19:01:12.630Z,99.90
2019-04-23T19:06:32.525Z,99.90
2019-04-23T19:17:07.269Z,99.90
2019-04-23T19:22:09.088Z,99.90
2019-04-23T19:31:50.647Z,99.90
2019-04-23T19:41:54.221Z,99.90
2019-04-23T19:46:48.944Z,99.90
2019-04-23T19:51:44.279Z,99.90
2019-04-23T19:56:37.792Z,99.90
2019-04-23T20:11:27.819Z,99.90
2019-04-23T20:21:13.500Z,99.90
2019-04-23T20:26:17.582Z,99.90
2019-04-23T20:32:57.588Z,99.90
2019-04-23T20:36:58.083Z,99.90
2019-04-23T20:42:39.081Z,99.90
2019-04-23T20:47:48.622Z,99.90
2019-04-23T20:53:06.562Z,99.90
2019-04-23T21:27:01.688Z,99.90
2019-04-23T21:31:55.602Z,99.90
2019-04-23T21:37:14.169Z,99.90
2019-04-23T21:42:11.826Z,99.90
2019-04-23T21:47:01.003Z,99.90
2019-04-23T21:52:04.972Z,99.90
2019-04-23T21:56:55.333Z,99.90
2019-04-23T22:01:53.776Z,99.90
2019-04-23T22:06:54.069Z,99.90
2019-04-23T22:16:57.970Z,99.90
2019-04-23T22:21:50.229Z,99.90
2019-04-23T22:36:49.746Z,99.90
2019-04-23T22:56:35.539Z,99.90
2019-04-23T23:01:56.939Z,99.90
2019-04-23T23:06:46.605Z,99.90
2019-04-23T23:11:22.498Z,99.90
2019-04-23T23:21:24.189Z,99.90
2019-04-23T23:26:20.305Z,99.90
2019-04-23T23:36:24.472Z,99.90
2019-04-23T23:56:12.472Z,99.90
